Date,TemperatureHighF,TemperatureAvgF,TemperatureLowF,DewpointHighF,DewpointAvgF,DewpointLowF,HumidityHigh,HumidityAvg,HumidityLow,PressureMaxIn,PressureMinIn,WindSpeedMaxMPH,WindSpeedAvgMPH,GustSpeedMaxMPH,PrecipitationSumIn
2013-1-1,49.9,44.6,37.6,49.9,43.5,31.7,100,96,78,30.06,29.91,0,0,3,1.12
2013-1-2,46.7,39.4,36.6,46.7,38.9,35.8,100,98,94,30.11,29.89,2,0,7,0.01
2013-1-3,39.8,34.5,26.3,37.0,32.6,25.3,100,93,77,30.33,30.08,2,0,4,0.00
2013-1-4,44.2,29.1,20.2,30.5,22.5,18.1,97,79,37,30.41,30.30,3,0,10,0.01
2013-1-5,48.8,33.9,20.6,36.2,26.9,18.9,94,78,38,30.40,30.22,1,0,2,0.02
2013-1-6,46.1,37.6,32.9,40.0,35.2,31.2,99,92,64,30.22,30.09,2,0,7,0.02
2013-1-7,53.6,36.4,23.2,33.2,26.9,21.2,98,74,30,30.38,30.21,6,1,10,0.01
2013-1-8,56.5,41.2,27.3,46.3,36.5,24.2,98,85,61,30.38,30.26,7,0,9,0.00
2013-1-9,60.1,52.9,47.0,55.5,51.5,46.5,100,95,84,30.37,30.26,3,0,3,0.00
2013-1-10,64.2,56.5,48.6,56.9,51.4,48.6,100,85,62,30.36,30.14,6,1,13,0.01
2013-1-11,63.1,59.5,56.5,62.3,58.6,53.6,100,97,90,30.12,30.02,7,1,13,0.36
2013-1-12,69.3,61.4,57.5,65.6,58.8,55.7,100,92,67,30.07,29.96,5,0,8,0.01
2013-1-13,66.1,62.4,58.3,60.4,56.8,54.7,99,82,72,30.01,29.90,6,1,12,0.57
2013-1-14,60.7,52.0,45.1,60.7,52.0,45.1,100,100,100,30.12,29.91,3,0,10,1.23
2013-1-15,61.5,53.7,46.5,61.5,53.7,46.5,100,100,100,30.06,29.86,2,0,3,2.26
2013-1-16,61.5,57.5,53.6,61.5,57.5,53.6,100,100,100,29.93,29.80,4,0,5,0.62
2013-1-17,51.7,44.8,33.5,51.7,44.7,33.2,100,100,99,30.21,29.57,4,0,11,1.38
2013-1-18,47.4,34.6,27.0,36.4,31.1,26.3,99,88,55,30.48,30.24,2,0,3,0.00
2013-1-19,53.3,35.7,25.3,38.1,28.6,20.7,100,80,28,30.44,30.20,3,0,5,0.01
2013-1-20,56.6,37.0,25.6,38.2,30.2,24.6,99,80,40,30.22,30.06,1,0,9,0.00
2013-1-21,50.7,34.2,24.2,34.6,23.2,13.8,100,69,36,30.15,30.05,2,0,10,0.00
2013-1-22,36.0,27.2,20.5,13.3,6.9,2.1,59,43,26,30.32,30.12,7,1,13,0.00
2013-1-23,47.7,32.7,26.0,26.6,17.1,4.5,86,54,39,30.35,30.14,5,0,8,0.00
2013-1-24,43.9,34.7,22.9,38.1,20.4,3.4,94,59,25,30.34,30.07,7,1,16,0.00
2013-1-25,35.2,30.6,22.2,35.2,23.2,7.3,100,77,40,30.34,30.10,7,1,10,0.01
2013-1-26,48.0,36.5,27.9,37.5,32.6,25.9,100,87,52,30.31,30.13,1,0,3,0.00
2013-1-27,50.8,37.4,24.5,35.0,29.2,23.5,98,75,48,30.43,30.29,5,1,9,0.00
2013-1-28,58.0,47.3,39.8,51.2,41.4,29.3,98,80,60,30.35,30.20,3,0,7,0.00
2013-1-29,63.5,52.6,40.3,59.6,50.1,40.0,100,92,76,30.22,29.87,4,0,10,0.06
2013-1-30,63.7,56.4,40.2,62.3,55.0,38.6,100,95,84,29.84,29.46,11,2,22,3.09
2013-1-31,41.2,34.0,29.4,34.9,25.0,20.5,94,71,44,30.09,29.67,16,2,18,0.05
2013-2-1,38.8,28.1,18.4,30.0,14.6,6.5,89,58,32,30.38,30.02,9,2,13,0.01
2013-2-2,33.2,25.7,16.5,33.0,22.2,11.8,99,87,46,30.37,30.09,2,0,4,0.04
2013-2-3,44.1,35.0,29.0,37.1,29.9,24.6,99,83,52,30.10,29.94,5,1,14,0.39
2013-2-4,46.5,33.8,23.6,33.5,27.5,21.7,94,79,54,30.14,29.98,2,0,3,0.01
2013-2-5,55.4,40.8,33.5,42.6,36.1,30.3,97,84,54,30.02,29.89,2,0,4,0.00
2013-2-6,62.0,41.1,29.4,46.8,31.8,26.5,100,76,26,30.17,30.01,2,0,6,0.01
2013-2-7,48.6,42.5,32.1,48.1,40.4,29.1,100,92,78,30.13,29.88,2,0,3,0.30
2013-2-8,49.2,43.5,31.6,49.2,41.8,30.3,100,94,71,30.17,29.85,9,1,11,0.11
2013-2-9,57.5,38.8,23.6,36.7,29.0,22.6,99,73,31,30.29,30.14,3,0,4,0.00
2013-2-10,52.3,46.7,41.6,49.7,33.9,21.0,100,64,29,30.26,30.00,15,2,20,0.96
2013-2-11,54.1,49.5,40.1,54.1,49.0,40.1,100,98,89,30.06,29.96,10,0,14,0.28
2013-2-12,49.2,41.4,33.7,42.8,38.0,33.1,100,89,56,30.10,29.82,2,0,3,0.17
2013-2-13,48.0,42.2,32.7,45.6,39.9,30.4,100,92,79,29.91,29.65,6,1,13,0.01
2013-2-14,52.6,39.2,30.3,33.4,30.9,27.1,92,74,41,30.05,29.92,2,0,7,0.00
2013-2-15,56.6,38.5,26.4,41.1,31.6,25.4,99,80,34,30.12,29.95,3,0,14,0.00
2013-2-16,34.9,29.9,23.3,31.4,21.4,12.1,96,72,43,30.09,29.91,10,2,19,0.01
2013-2-17,39.2,26.7,16.7,15.2,11.2,7.6,73,53,32,30.27,30.10,9,1,11,0.00
2013-2-18,54.5,35.3,18.9,25.5,20.0,14.1,90,59,30,30.36,30.05,7,1,14,0.00
2013-2-19,52.0,41.3,31.2,45.8,29.1,13.1,100,66,29,30.10,29.90,12,2,15,0.21
2013-2-20,44.5,32.9,23.8,18.9,12.8,3.5,79,48,18,30.18,30.09,4,1,8,0.00
2013-2-21,65.5,40.5,22.7,41.1,23.3,9.8,98,59,13,30.19,29.94,4,0,5,0.54
2013-2-22,48.9,44.4,40.5,44.9,42.2,39.9,99,92,82,30.08,29.96,3,0,10,0.66
2013-2-23,56.3,48.6,42.1,53.7,47.4,41.8,100,96,85,29.97,29.77,2,0,4,0.51
2013-2-24,61.2,42.9,30.6,40.0,32.2,24.7,100,73,28,30.01,29.85,11,1,11,0.01
2013-2-25,53.5,44.7,32.8,40.9,34.4,27.3,94,70,43,30.02,29.79,5,1,10,0.00
2013-2-26,50.8,44.9,38.8,45.4,41.4,32.6,99,88,72,29.75,29.46,9,2,15,0.66
2013-2-27,52.3,41.5,36.2,39.2,33.5,29.7,96,75,47,29.82,29.68,6,1,9,0.06
2013-2-28,38.6,33.9,31.5,30.7,26.1,23.2,81,73,66,29.95,29.77,5,2,11,0.00
2013-3-1,37.2,33.0,31.0,30.0,28.0,24.2,92,82,69,29.96,29.90,5,1,11,0.00
2013-3-2,33.5,31.2,27.3,30.5,27.5,21.1,96,86,74,30.00,29.88,4,1,12,0.06
2013-3-3,34.4,27.8,22.9,21.0,18.1,15.4,81,68,50,30.07,29.98,6,1,14,0.00
2013-3-4,55.1,34.0,17.8,32.7,21.2,13.8,92,65,30,30.18,30.00,2,0,6,0.00
2013-3-5,56.0,45.3,32.9,52.4,41.4,25.7,97,86,74,30.02,29.58,10,2,20,0.62
2013-3-6,32.5,29.6,26.9,27.5,24.8,19.8,92,82,68,30.18,29.78,10,3,18,0.01
2013-3-7,52.0,35.7,27.3,34.4,28.2,24.7,91,76,47,30.25,30.15,2,0,10,0.01
2013-3-8,61.8,37.8,22.4,32.9,25.4,20.1,97,68,23,30.33,30.17,2,0,5,0.00
2013-3-9,64.7,44.5,26.1,32.5,27.1,23.4,92,58,23,30.30,30.13,4,0,12,0.00
2013-3-10,63.7,54.0,44.8,39.0,32.2,28.4,63,44,27,30.15,29.98,5,1,19,0.00
2013-3-11,56.6,53.5,50.8,52.5,48.6,40.9,100,84,57,29.97,29.71,12,3,18,1.10
2013-3-12,52.5,42.4,34.7,49.5,35.7,30.7,100,80,44,30.06,29.76,7,1,14,0.04
2013-3-13,47.1,35.6,27.2,31.1,24.8,18.1,97,69,36,30.22,30.04,7,2,12,0.00
2013-3-14,49.6,34.6,21.8,26.5,16.5,11.2,78,51,23,30.34,30.20,6,1,11,0.00
2013-3-15,67.9,47.7,28.2,42.4,34.0,26.2,94,63,32,30.22,29.89,6,1,11,0.00
2013-3-16,72.8,59.0,46.4,47.8,42.7,39.9,82,57,37,29.90,29.75,6,1,13,0.00
2013-3-17,69.4,55.3,43.3,50.6,44.6,40.8,91,70,45,29.92,29.81,5,0,9,0.00
2013-3-18,54.5,50.2,44.9,52.5,47.9,43.4,100,92,82,29.88,29.74,5,1,10,0.59
2013-3-19,59.8,46.2,34.9,48.0,33.2,19.5,100,66,26,30.07,29.81,4,1,12,0.00
2013-3-20,55.1,40.5,28.5,29.6,21.0,10.5,83,51,18,30.10,29.85,7,1,16,0.00
2013-3-21,42.5,30.9,21.9,25.9,13.9,8.2,76,51,27,29.96,29.85,10,1,15,0.00
2013-3-22,44.6,34.6,23.3,32.3,21.7,15.4,79,61,35,30.05,29.95,1,0,3,0.00
2013-3-23,55.6,46.0,39.5,49.2,43.1,32.9,100,90,75,29.98,29.73,4,0,9,0.20
2013-3-24,56.2,48.4,38.5,50.3,46.1,31.3,100,92,73,29.78,29.40,6,1,15,1.51
2013-3-25,38.0,31.8,29.1,30.6,24.1,20.2,90,73,62,30.01,29.58,11,2,17,0.01
2013-3-26,36.2,31.1,27.9,28.3,24.5,21.5,88,77,65,30.25,30.00,5,2,14,0.01
2013-3-27,51.3,36.4,26.9,25.5,23.2,19.3,89,63,31,30.30,30.19,5,1,11,0.00
2013-3-28,57.0,38.1,22.4,29.1,23.7,15.5,94,62,23,30.33,30.21,4,1,12,0.00
2013-3-29,56.9,39.3,25.8,39.1,29.1,22.7,92,70,33,30.33,30.18,2,0,3,0.00
2013-3-30,66.4,52.3,42.5,52.0,41.3,33.6,98,71,32,30.17,29.94,3,0,7,0.30
2013-3-31,60.9,55.1,52.2,55.2,53.1,50.1,100,94,68,29.93,29.79,3,0,9,0.35
2013-4-1,63.2,52.2,40.9,53.6,44.4,37.0,100,78,43,29.98,29.79,7,1,12,0.02
2013-4-2,61.5,45.2,34.4,37.4,26.8,18.2,88,54,24,30.14,29.96,5,1,6,0.00
2013-4-3,61.0,49.0,36.9,32.9,28.3,23.9,74,46,27,30.16,30.06,2,0,7,0.00
2013-4-4,50.4,42.0,38.5,42.3,39.0,27.0,100,91,40,30.09,29.90,0,0,4,0.83
2013-4-5,63.1,48.9,39.9,46.9,40.8,34.9,100,78,35,30.04,29.90,5,1,7,0.01
2013-4-6,68.9,50.1,31.0,44.4,34.3,30.2,100,63,26,30.17,30.04,6,1,10,0.00
2013-4-7,69.1,55.7,42.1,45.1,40.7,34.7,80,59,37,30.14,30.00,10,1,13,0.00
2013-4-8,73.2,59.7,48.2,51.5,47.7,44.0,92,67,42,30.07,29.97,10,1,14,0.00
2013-4-9,79.4,63.5,49.6,56.5,51.3,48.2,97,69,36,30.11,29.98,5,0,11,0.00
2013-4-10,83.2,66.2,50.1,57.3,52.7,48.6,99,67,30,30.03,29.82,4,0,11,0.00
2013-4-11,74.7,66.6,59.2,61.2,55.7,53.0,99,69,50,29.83,29.59,10,2,12,1.12
2013-4-12,64.7,57.4,44.2,60.1,49.5,36.4,100,78,35,29.88,29.52,7,1,11,0.24
2013-4-13,72.8,52.8,36.8,42.5,37.7,29.2,99,64,24,30.00,29.88,4,0,10,0.00
2013-4-14,65.2,50.9,37.3,49.4,42.2,35.5,96,75,37,30.01,29.84,7,1,11,0.01
2013-4-15,76.7,63.4,53.6,57.5,53.2,49.2,94,71,45,30.05,29.85,5,1,15,0.00
2013-4-16,78.3,66.5,57.8,60.6,57.5,54.4,95,74,51,30.15,30.04,7,1,9,0.00
2013-4-17,82.8,66.4,59.8,65.3,60.0,57.4,100,83,44,30.13,29.97,5,1,7,1.09
2013-4-18,75.3,65.9,57.6,62.7,58.2,53.0,100,79,51,29.99,29.79,9,1,18,0.00
2013-4-19,67.8,58.1,42.5,63.3,52.3,34.1,97,81,69,29.97,29.65,7,2,22,0.51
2013-4-20,61.3,45.7,32.1,36.0,31.3,27.9,92,60,32,30.22,29.99,6,1,13,0.00
2013-4-21,66.4,48.6,31.6,42.8,33.6,29.5,99,63,27,30.33,30.18,5,0,11,0.00
2013-4-22,70.1,53.5,37.0,44.2,38.1,34.2,95,61,29,30.30,30.06,5,0,9,0.00
2013-4-23,73.9,55.4,36.5,48.2,39.9,34.5,95,61,30,30.16,30.00,5,1,7,0.00
2013-4-24,69.4,58.1,48.6,60.4,52.3,45.5,98,82,58,30.08,29.97,8,1,13,0.16
2013-4-25,67.6,50.4,37.6,46.5,37.3,25.8,99,68,22,30.29,30.08,6,1,12,0.00
2013-4-26,73.0,51.4,31.0,50.4,35.7,29.9,98,63,22,30.38,30.18,10,0,10,0.01
2013-4-27,55.6,52.9,50.2,52.5,51.1,49.0,100,94,80,30.27,30.09,1,0,3,0.62
2013-4-28,55.9,54.1,51.9,55.9,53.3,50.6,100,97,85,30.10,29.92,4,0,11,2.21
2013-4-29,71.8,59.1,51.1,60.0,52.4,45.4,100,82,39,29.96,29.84,4,1,6,0.01
2013-4-30,73.7,55.9,42.9,56.8,50.3,42.6,100,84,46,30.01,29.89,3,0,6,0.00
2013-5-1,70.9,61.9,53.5,57.0,53.2,49.6,96,75,52,30.10,30.00,5,1,11,0.00
2013-5-2,68.1,60.5,52.6,56.2,52.6,48.8,92,76,59,30.11,30.04,4,0,6,0.00
2013-5-3,64.0,58.6,56.0,53.5,51.3,47.9,85,77,61,30.06,29.89,5,1,12,0.00
2013-5-4,57.6,53.8,51.1,52.2,48.9,42.3,100,84,68,29.88,29.78,7,1,9,1.04
2013-5-5,58.7,53.1,48.0,54.2,51.6,47.5,100,95,78,29.77,29.67,5,1,11,1.17
2013-5-6,52.3,47.9,40.8,47.0,45.2,40.8,100,91,74,29.85,29.71,10,0,10,0.04
2013-5-7,48.5,48.1,47.0,47.7,47.4,46.5,99,97,96,29.84,29.81,0,0,0,0.01
2013-5-8,71.6,63.4,54.1,57.4,54.3,50.1,95,73,52,29.99,29.91,5,1,7,0.00
2013-5-9,79.0,61.4,47.1,59.5,53.4,46.8,100,79,37,30.05,29.96,3,0,7,0.00
2013-5-10,73.2,61.7,50.8,62.7,56.0,50.5,100,84,57,30.01,29.87,6,0,9,0.01
2013-5-11,72.8,61.8,56.2,63.7,58.8,56.0,100,91,62,29.89,29.77,5,0,14,0.24
2013-5-14,75.1,67.9,55.3,54.1,51.6,49.5,89,59,41,30.08,30.04,5,1,9,0.00
2013-5-15,84.0,64.2,49.1,56.6,52.7,48.8,100,72,30,30.11,29.92,4,0,9,0.00
2013-5-16,80.5,64.2,52.9,62.6,56.5,52.3,100,79,39,30.01,29.89,1,0,5,0.00
2013-5-17,79.0,65.6,55.7,64.0,57.7,53.1,100,79,46,30.01,29.92,4,0,5,0.00
2013-5-18,70.3,67.1,63.4,65.6,63.9,62.5,97,90,79,29.99,29.93,4,0,4,0.38
2013-5-19,66.4,64.1,59.0,66.4,64.1,59.0,100,100,98,30.01,29.91,1,0,5,0.80
2013-5-20,84.7,66.7,54.8,69.8,61.7,54.8,100,86,54,30.03,29.91,5,0,5,0.02
2013-5-21,84.3,73.3,64.7,70.4,67.0,63.4,100,83,50,29.97,29.82,6,0,12,0.26
2013-5-22,80.9,68.7,59.5,70.7,64.0,59.2,100,87,54,29.90,29.74,5,0,6,0.01
2013-5-23,77.6,67.7,61.2,64.3,58.9,53.0,100,76,46,29.88,29.79,7,1,12,0.01
2013-5-24,71.3,60.8,46.1,53.4,47.9,39.0,87,65,36,30.18,29.88,11,1,14,0.00
2013-5-25,78.1,56.1,38.3,46.1,40.5,35.1,100,64,25,30.28,30.13,5,0,6,0.00
2013-5-26,78.1,59.0,43.5,56.6,48.5,42.2,97,72,39,30.22,30.09,1,0,10,0.00
2013-5-27,80.9,63.7,48.5,61.8,54.1,47.8,99,75,41,30.17,30.03,3,0,9,0.00
2013-5-28,81.6,69.5,59.3,61.0,58.3,54.3,96,71,39,30.11,30.01,4,0,10,0.00
2013-5-29,82.0,73.6,59.5,64.5,59.9,55.0,98,65,41,30.12,30.03,6,1,10,0.00
2013-5-30,79.2,69.4,60.2,62.2,60.6,59.1,97,76,52,30.16,30.03,9,1,9,0.00
2013-5-31,79.8,70.3,61.8,64.7,62.0,59.7,94,76,55,30.10,29.98,6,1,11,0.00
2013-6-1,79.9,70.5,63.5,67.4,63.8,61.1,98,81,57,30.00,29.88,4,0,9,0.28
2013-6-2,75.4,68.9,66.0,72.3,68.4,65.7,100,98,87,29.90,29.78,2,0,7,0.40
2013-6-3,80.7,69.4,61.6,69.0,65.2,60.7,100,88,57,29.88,29.76,3,0,10,0.04
2013-6-4,82.4,67.3,55.0,67.7,61.1,54.7,100,83,50,29.95,29.87,2,0,5,0.01
2013-6-5,81.8,69.3,62.4,67.5,64.6,61.5,100,87,62,29.94,29.81,9,1,11,1.60
2013-6-6,76.5,69.9,62.0,69.6,66.7,62.0,100,91,69,29.83,29.65,2,0,6,0.00
2013-6-7,79.6,71.0,64.0,69.8,65.9,62.9,100,85,60,29.75,29.60,3,1,7,0.23
2013-6-8,79.4,67.6,62.0,66.9,63.9,62.0,100,89,57,29.99,29.73,2,0,3,0.00
2013-6-9,79.9,68.9,61.3,70.3,65.7,61.0,100,91,62,30.01,29.89,5,0,5,0.24
2013-6-10,77.2,69.0,65.3,67.6,65.3,60.1,100,89,56,29.92,29.82,7,0,10,0.35
2013-6-11,83.8,72.7,65.2,72.4,68.8,64.3,100,89,61,29.93,29.85,1,0,9,0.30
2013-6-12,86.3,79.0,67.1,74.7,71.9,66.1,100,80,54,29.97,29.87,3,0,5,0.00
2013-6-13,84.9,73.9,66.6,72.3,69.5,66.6,100,88,62,29.84,29.62,4,1,7,0.28
2013-6-14,83.0,68.1,56.5,67.4,59.6,55.2,100,78,41,29.93,29.73,3,0,5,0.00
2013-6-15,81.8,67.1,54.4,65.2,59.3,54.1,100,79,44,30.06,29.93,4,0,4,0.00
2013-6-16,82.2,69.3,57.3,68.7,62.9,57.2,100,82,53,30.07,29.92,3,0,4,0.16
2013-6-17,78.3,70.2,66.3,74.7,69.1,66.3,100,97,78,29.95,29.84,5,0,7,0.97
2013-6-18,75.8,69.3,65.8,71.8,68.3,65.8,100,97,81,29.85,29.74,4,0,6,0.54
2013-6-19,80.3,69.7,63.4,70.9,66.3,63.4,100,90,66,29.99,29.81,4,0,6,0.00
2013-6-20,80.5,68.0,60.1,68.9,64.7,60.1,100,90,61,30.10,29.99,3,0,4,0.09
2013-6-21,81.4,67.8,61.8,68.3,64.8,61.7,100,91,58,30.15,30.07,3,0,7,1.59
2013-6-22,81.2,67.9,59.0,69.8,63.7,59.0,100,88,58,30.17,30.01,3,0,3,0.00
2013-6-23,80.3,68.7,58.3,71.0,65.1,58.3,100,90,61,30.12,30.01,1,0,5,0.00
2013-6-24,83.8,71.8,64.0,71.8,67.8,64.0,100,88,57,30.12,30.00,1,0,3,0.04
2013-6-25,80.9,70.8,63.4,70.8,67.6,63.4,100,90,69,30.07,29.94,1,0,6,0.00
2013-6-26,81.2,71.3,64.3,73.2,69.1,64.3,100,93,71,29.98,29.83,3,0,5,0.23
2013-6-27,81.8,73.7,67.6,73.9,70.3,67.2,100,90,71,29.87,29.68,3,0,6,0.05
2013-6-28,85.5,71.7,63.4,73.9,68.4,63.4,100,91,53,29.76,29.56,2,0,6,0.38
2013-6-29,83.6,70.5,62.7,69.6,65.3,61.2,100,85,53,29.62,29.55,3,0,7,0.00
2013-6-30,81.6,68.8,57.8,66.9,62.1,57.5,100,82,49,29.68,29.60,6,0,6,0.00
2013-7-1,79.0,68.5,62.0,69.3,65.6,61.7,100,91,67,29.81,29.66,3,0,5,0.19
2013-7-2,78.5,70.7,63.5,70.9,66.4,63.5,100,87,62,29.97,29.81,5,1,9,0.09
2013-7-3,71.3,66.8,63.9,68.8,65.7,63.9,100,96,82,30.08,29.95,7,0,9,4.12
2013-7-4,73.9,67.9,64.0,70.8,67.5,64.0,100,98,88,30.08,30.00,3,0,4,0.45
2013-7-5,76.1,69.5,66.6,70.5,67.8,66.4,100,95,76,30.11,30.03,4,0,4,0.24
2013-7-6,76.5,70.1,66.3,71.5,68.9,66.3,100,96,79,30.06,29.99,4,0,8,0.71
2013-7-7,77.7,71.3,67.9,72.4,69.8,67.9,100,96,74,30.07,29.99,2,0,7,0.15
2013-7-8,84.0,72.7,67.4,74.1,69.6,65.8,100,91,57,30.09,30.00,1,0,4,0.00
2013-7-9,85.7,74.4,68.8,75.6,70.8,68.8,100,89,69,30.07,29.94,3,0,6,0.06
2013-7-10,84.0,72.9,68.4,75.2,71.0,68.4,100,94,66,30.00,29.84,4,0,6,0.14
2013-7-11,81.6,73.3,69.6,73.1,71.2,69.6,100,94,70,29.87,29.76,2,0,2,0.00
2013-7-12,83.4,74.2,68.8,72.1,69.4,65.4,100,86,61,29.85,29.76,5,0,8,0.00
2013-7-13,77.6,70.0,64.7,69.4,66.2,64.1,99,88,73,29.98,29.84,4,0,7,0.00
2013-7-14,77.9,70.9,67.4,72.5,68.8,65.5,100,94,77,30.12,29.96,2,0,4,0.20
2013-7-15,81.4,72.2,64.8,71.5,68.1,64.5,100,88,65,30.20,30.10,2,0,3,0.05
2013-7-16,85.1,73.6,64.3,75.1,69.6,64.3,100,88,65,30.23,30.12,2,0,2,0.00
2013-7-17,88.6,73.4,65.2,75.2,70.0,65.2,100,90,56,30.20,30.04,2,0,4,0.61
2013-7-18,84.5,73.5,66.9,76.7,70.5,66.9,100,91,67,30.13,29.95,3,0,5,0.06
2013-7-19,69.6,67.7,66.0,69.0,67.5,66.0,100,99,98,30.03,29.98,0,0,0,0.00
2013-7-20,86.1,75.5,67.3,73.5,70.0,66.7,100,85,60,29.94,29.82,2,0,7,0.01
2013-7-21,84.7,73.4,66.9,73.4,69.6,66.8,100,89,60,29.93,29.82,3,0,6,0.02
2013-7-22,80.9,72.4,67.1,71.9,69.4,67.1,100,91,68,29.90,29.76,4,0,6,0.00
2013-7-23,79.2,71.8,66.0,70.9,68.5,66.0,100,90,72,29.84,29.73,3,0,7,0.01
2013-7-24,83.8,73.9,67.8,72.2,70.0,66.9,100,89,65,29.77,29.70,2,0,7,0.00
2013-7-25,84.9,71.3,62.0,70.7,65.9,62.0,100,85,48,29.92,29.76,3,0,9,0.00
2013-7-26,81.8,69.1,58.4,71.4,65.2,58.1,100,89,64,29.99,29.88,2,0,6,0.47
2013-7-27,77.9,70.0,64.5,73.4,67.7,64.5,100,93,65,29.90,29.78,1,0,4,0.01
2013-7-28,81.8,69.7,61.8,70.3,65.5,61.8,100,88,62,29.95,29.83,3,0,4,0.00
2013-7-29,80.9,66.2,58.0,63.8,60.1,54.0,100,84,43,30.10,29.94,4,0,5,0.00
2013-7-30,80.1,67.1,55.6,68.0,61.9,55.3,100,85,48,30.15,30.03,0,0,0,0.00
2013-7-31,74.0,70.4,67.9,71.6,69.0,65.5,100,95,84,30.05,29.86,5,0,6,0.19
2013-8-1,83.0,73.9,66.8,72.2,68.9,65.6,100,86,61,29.89,29.80,3,0,7,0.01
2013-8-2,84.0,71.0,61.5,69.5,66.2,61.2,100,86,55,29.94,29.86,7,0,7,0.00
2013-8-3,80.3,70.3,62.9,70.8,66.8,62.8,100,90,63,29.96,29.91,0,0,4,0.00
2013-8-4,85.5,73.1,64.2,71.8,67.5,62.3,100,85,54,29.95,29.87,7,0,9,0.00
2013-8-5,83.6,68.6,58.9,69.7,63.2,58.6,100,85,49,29.99,29.89,0,0,2,0.00
2013-8-6,81.1,71.5,65.0,72.6,68.0,62.0,99,89,66,29.92,29.85,0,0,3,0.01
2013-8-7,78.3,72.7,68.9,74.5,71.0,68.2,99,94,79,29.94,29.87,3,0,4,0.23
2013-8-8,82.2,73.2,68.9,74.4,71.4,68.6,100,94,76,29.96,29.89,5,0,9,0.79
2013-8-9,82.8,73.3,67.9,76.6,71.9,67.9,100,96,77,29.99,29.91,1,0,3,0.02
2013-8-10,81.4,72.8,67.9,78.6,72.0,67.9,100,97,84,30.04,29.97,1,0,3,0.72
2013-8-11,83.0,72.9,65.8,76.4,70.7,65.8,100,93,75,30.07,29.97,3,0,4,0.02
2013-8-12,81.1,72.4,67.6,76.6,71.3,67.6,100,97,77,30.02,29.88,1,0,2,0.43
2013-8-13,81.2,72.7,69.3,74.3,70.8,69.0,100,94,71,29.90,29.76,2,0,7,0.68
2013-8-14,77.7,70.0,65.8,68.8,66.7,63.4,100,90,66,29.93,29.80,1,0,7,0.01
2013-8-15,74.0,65.1,58.1,64.0,60.8,58.0,100,87,62,30.00,29.92,6,1,9,0.00
2013-8-16,71.3,63.2,58.0,63.6,59.5,57.4,100,88,71,30.03,29.95,5,0,7,0.00
2013-8-17,66.9,63.7,59.8,64.9,61.7,58.1,100,94,80,30.05,29.99,2,0,5,0.45
2013-8-18,73.7,66.9,62.9,70.0,66.3,62.9,100,98,86,30.10,30.01,0,0,3,0.30
2013-8-19,75.1,68.7,64.8,74.0,68.4,64.8,100,99,92,30.07,29.95,0,0,4,1.25
2013-8-20,77.9,73.8,67.6,72.4,70.7,67.6,100,90,76,30.08,30.00,2,0,4,0.00
2013-8-21,72.3,69.7,66.8,72.0,69.6,66.8,100,100,97,30.14,30.04,0,0,0,0.57
2013-8-22,82.2,73.4,65.8,75.3,70.2,65.8,100,90,66,30.09,29.95,4,0,6,0.09
2013-8-23,83.2,71.3,64.3,73.5,68.6,64.3,100,92,64,30.00,29.87,2,0,4,0.00
2013-8-24,80.9,70.4,62.6,72.3,66.6,62.6,100,89,63,30.15,29.95,6,0,11,0.00
2013-8-25,78.5,66.5,56.5,68.0,61.5,56.0,100,85,58,30.28,30.15,2,0,8,0.00
2013-8-26,80.3,66.2,56.2,68.1,62.3,56.2,100,89,58,30.24,30.06,3,0,6,0.00
2013-8-27,80.9,67.6,58.1,71.0,64.8,58.1,100,92,61,30.08,29.96,3,0,6,0.00
2013-8-28,84.0,71.3,62.7,74.0,67.8,62.7,100,90,65,29.99,29.88,4,0,9,0.01
2013-8-29,86.7,72.9,63.7,75.0,69.1,63.7,100,89,64,29.93,29.83,4,0,9,0.00
2013-8-30,86.1,76.5,67.1,74.7,71.7,67.1,100,86,58,29.92,29.82,5,0,7,0.00
2013-8-31,85.5,73.1,66.4,75.7,70.0,66.4,100,91,61,29.89,29.75,5,0,7,0.05
2013-9-1,83.2,71.6,67.4,75.3,70.1,67.4,100,96,65,29.84,29.72,4,0,14,0.40
2013-9-2,78.8,70.5,64.5,73.4,69.2,64.5,100,96,73,29.87,29.75,2,0,7,0.01
2013-9-3,83.0,71.7,66.4,73.0,68.7,66.1,100,92,61,29.90,29.75,4,0,10,0.72
2013-9-4,80.5,69.8,63.5,71.8,66.8,63.5,100,91,65,30.02,29.88,0,0,3,0.00
2013-9-5,82.0,69.4,61.8,70.9,66.2,61.8,100,91,57,30.06,29.98,0,0,3,0.00
2013-9-6,82.2,69.6,62.9,70.3,65.5,62.3,100,88,56,30.07,29.97,5,0,9,0.01
2013-9-7,81.6,68.8,58.7,70.6,64.8,58.7,100,89,56,30.04,29.92,2,0,7,0.00
2013-9-8,84.3,69.2,59.9,71.6,65.3,59.9,100,89,55,29.94,29.85,4,0,10,0.00
2013-9-9,84.1,70.6,61.5,72.2,66.7,61.5,100,89,60,30.03,29.91,4,0,6,0.01
2013-9-10,84.1,70.8,61.8,71.5,66.6,61.8,100,88,54,30.14,30.02,4,0,6,0.00
2013-9-11,84.5,70.5,60.5,71.5,66.4,60.5,100,89,52,30.16,30.01,2,0,6,0.00
2013-9-12,81.6,69.5,64.8,73.1,68.3,64.8,100,96,69,30.00,29.83,5,0,11,0.46
2013-9-13,78.8,67.7,54.8,68.6,62.6,52.8,100,86,53,29.84,29.73,3,0,10,0.05
2013-9-14,76.7,59.6,47.4,61.6,54.5,47.1,100,86,47,30.01,29.83,1,0,6,0.00
2013-9-15,77.0,62.9,52.2,64.8,58.3,52.0,100,87,54,30.10,30.01,4,0,11,0.00
2013-9-16,79.4,65.9,57.6,69.4,61.0,57.6,100,87,51,30.09,29.99,1,0,7,0.01
2013-9-17,73.7,64.5,59.0,65.0,59.0,55.4,100,84,58,30.15,30.03,6,1,10,0.00
2013-9-18,70.6,62.1,56.0,62.9,58.7,55.5,100,90,69,30.16,30.06,5,0,7,0.00
2013-9-19,78.8,64.5,54.2,67.5,60.8,54.2,100,89,58,30.12,29.99,2,0,4,0.00
2013-9-20,79.2,66.5,57.3,68.9,63.2,57.3,100,90,59,30.01,29.83,3,0,4,0.00
2013-9-21,67.8,65.0,59.3,67.8,64.9,59.3,100,100,98,29.84,29.61,4,0,8,1.81
2013-9-22,72.7,59.7,51.6,61.9,56.8,51.6,100,92,58,29.83,29.70,5,0,5,0.00
2013-9-23,73.5,59.7,49.1,64.2,55.6,49.1,100,88,57,29.96,29.83,4,0,10,0.01
2013-9-24,71.1,61.7,54.2,65.8,59.5,54.2,100,93,75,29.97,29.81,3,0,9,0.00
2013-9-25,66.1,63.2,61.6,66.1,62.5,61.3,100,98,87,29.81,29.74,3,0,5,1.98
2013-9-26,75.8,64.8,60.1,66.2,62.3,60.1,100,92,68,29.93,29.78,3,0,10,0.00
2013-9-27,75.3,62.3,52.9,64.0,58.7,52.9,100,90,52,30.07,29.93,1,0,4,0.01
2013-9-28,72.7,60.6,50.5,61.0,56.8,50.5,100,89,61,30.15,30.03,2,0,5,0.00
2013-9-29,69.8,58.6,49.9,59.4,55.3,49.6,100,90,60,30.09,29.96,2,0,3,0.00
2013-9-30,72.7,59.9,51.1,61.3,56.1,51.0,100,89,53,30.03,29.91,4,0,6,0.00
2013-10-1,75.4,60.6,50.7,64.3,57.4,50.7,100,91,54,30.11,29.98,3,0,4,0.00
2013-10-2,76.8,62.8,53.1,67.4,60.2,53.0,100,92,62,30.12,29.98,0,0,5,0.01
2013-10-3,78.3,65.1,59.6,66.3,62.5,59.3,100,92,55,30.07,29.98,2,0,6,0.00
2013-10-4,79.0,63.4,52.9,68.5,60.4,52.9,100,91,57,30.11,30.00,1,0,5,0.00
2013-10-5,80.9,65.3,55.3,69.7,61.5,55.3,100,89,53,30.09,29.93,5,0,10,0.00
2013-10-6,77.0,65.4,55.9,69.9,61.3,55.9,100,88,60,29.95,29.76,7,0,12,0.39
2013-10-7,67.9,58.8,49.8,64.9,56.0,49.3,100,91,62,29.95,29.69,5,0,11,0.70
2013-10-8,73.3,57.7,47.7,60.9,53.0,47.4,100,86,55,30.08,29.93,5,0,8,0.00
2013-10-9,74.9,58.8,47.6,61.2,54.3,47.6,100,87,57,30.13,30.00,3,0,5,0.00
2013-10-10,75.1,58.0,48.3,62.0,53.1,48.3,100,86,50,30.08,29.96,4,0,12,0.00
2013-10-11,75.1,57.5,45.7,61.0,53.2,45.7,100,88,54,30.03,29.90,2,0,7,0.01
2013-10-12,75.1,58.1,47.6,63.7,54.5,47.6,100,90,54,30.04,29.93,2,0,9,0.00
2013-10-13,75.8,59.4,48.5,63.6,56.8,48.5,100,92,62,30.14,30.03,2,0,5,0.01
2013-10-14,71.3,61.7,54.5,66.0,59.0,54.5,100,91,67,30.14,30.02,2,0,6,0.00
2013-10-15,69.8,59.5,51.0,61.0,55.9,51.0,100,89,65,30.07,29.96,6,0,7,0.00
2013-10-16,68.1,60.0,52.6,61.3,57.7,52.0,100,92,71,29.99,29.88,1,0,4,0.01
2013-10-17,67.6,62.2,56.3,67.4,61.8,55.2,100,99,94,29.88,29.77,2,0,7,0.24
2013-10-18,66.3,54.6,46.5,55.8,51.2,46.2,100,89,58,29.96,29.86,3,0,7,0.00
2013-10-19,60.5,53.8,48.5,57.5,51.1,48.1,100,91,65,29.92,29.84,3,0,9,0.00
2013-10-20,64.5,47.7,37.0,48.1,42.6,35.6,100,86,35,30.04,29.92,2,0,4,0.01
2013-10-21,68.6,49.4,34.9,57.2,44.0,34.7,100,85,44,30.12,29.95,4,0,7,0.00
2013-10-22,70.1,56.0,47.7,59.0,51.0,46.0,100,86,48,29.97,29.76,4,0,9,0.01
2013-10-23,52.9,44.5,34.4,47.1,38.8,31.3,100,82,52,30.04,29.75,6,1,17,0.00
2013-10-24,57.3,41.7,30.9,40.3,35.6,29.9,99,81,46,30.16,30.02,3,0,10,0.00
2013-10-25,54.4,38.2,27.3,38.5,27.3,22.6,95,68,31,30.35,30.15,5,0,12,0.00
2013-10-26,59.2,39.0,23.9,39.3,29.5,22.7,98,74,32,30.33,30.09,3,0,7,0.00
2013-10-27,61.3,51.1,41.3,53.0,45.1,36.1,97,81,61,30.10,30.02,4,0,7,0.00
2013-10-28,60.7,54.3,49.8,58.7,52.2,49.8,100,93,70,30.21,30.06,2,0,4,0.10
2013-10-29,67.8,54.4,45.5,58.5,51.8,45.2,100,92,62,30.28,30.16,1,0,3,0.00
2013-10-30,75.1,59.5,50.4,60.4,54.4,50.4,100,85,52,30.24,30.07,3,0,7,0.01
2013-10-31,67.9,61.6,54.7,60.7,56.4,50.5,99,84,67,30.08,29.68,12,1,15,0.04
2013-11-1,73.0,61.9,47.0,62.6,54.3,42.6,100,79,41,29.75,29.58,5,0,20,0.24
2013-11-2,63.5,48.2,38.2,51.3,40.1,32.8,100,77,39,30.01,29.72,13,0,18,0.00
2013-11-3,61.3,43.9,32.4,44.9,36.7,31.4,100,79,40,30.26,29.99,3,0,7,0.00
2013-11-4,58.1,42.8,32.1,41.5,34.2,31.5,100,75,43,30.40,30.26,14,1,15,0.00
2013-11-5,68.3,49.0,35.3,42.8,36.9,32.6,93,67,33,30.43,30.27,5,0,10,0.00
2013-11-6,68.8,57.8,44.2,53.9,50.9,36.7,96,79,59,30.27,30.02,9,1,17,0.00
2013-11-7,58.6,50.0,36.2,57.3,45.9,31.6,99,86,62,30.18,29.93,7,0,15,0.25
2013-11-8,58.1,39.2,29.1,34.5,27.8,20.4,95,69,25,30.31,30.18,2,0,6,0.01
2013-11-9,57.0,40.3,27.2,39.5,30.8,25.0,97,73,30,30.35,30.21,3,0,7,0.00
2013-11-10,67.8,46.7,34.7,41.4,34.8,27.2,94,69,24,30.29,30.15,4,0,11,0.00
2013-11-11,66.0,43.0,27.6,41.8,31.1,25.2,97,69,22,30.31,30.12,1,0,6,0.00
2013-11-12,52.2,36.5,25.6,40.1,28.4,13.3,93,73,57,30.42,30.09,7,1,13,0.00
2013-11-13,46.8,28.5,15.7,23.0,16.0,11.6,90,63,25,30.59,30.42,6,0,6,0.00
2013-11-14,57.3,34.0,18.0,28.8,19.1,12.6,92,62,17,30.51,30.26,2,0,5,0.00
2013-11-15,52.3,42.2,27.5,51.7,39.3,19.8,100,89,72,30.29,30.08,1,0,6,0.20
2013-11-16,62.1,55.9,51.3,57.8,53.4,51.3,100,92,76,30.14,30.04,5,0,12,0.01
2013-11-17,62.3,59.9,58.0,62.3,57.2,53.5,100,91,83,30.06,29.81,6,0,10,0.31
2013-11-18,63.9,55.1,43.1,63.9,44.4,31.1,100,72,31,30.01,29.78,9,0,15,0.02
2013-11-19,55.4,41.3,30.6,33.8,30.3,24.5,92,68,30,30.15,29.99,3,0,5,0.00
2013-11-20,54.7,39.9,27.6,33.4,29.2,25.6,94,69,35,30.29,30.12,6,1,11,0.00
2013-11-21,59.6,51.7,36.8,53.9,47.6,32.4,94,86,75,30.33,30.24,9,1,11,0.00
2013-11-22,63.9,58.8,55.6,58.9,56.3,52.8,99,92,83,30.23,30.08,3,0,8,0.14
2013-11-23,56.7,45.4,31.9,56.4,41.5,22.4,99,86,67,30.25,30.05,4,1,10,0.00
2013-11-24,42.6,29.0,20.8,23.9,15.6,10.5,75,59,29,30.46,30.24,5,0,10,0.00
2013-11-25,43.8,34.5,21.6,37.2,18.2,1.8,92,56,18,30.45,30.14,6,0,13,0.06
2013-11-26,48.2,44.3,39.8,48.2,44.0,37.7,100,99,90,30.13,29.62,4,0,12,3.79
2013-11-27,39.5,29.8,21.1,39.5,26.3,16.7,100,87,73,30.23,29.64,10,1,14,0.11
2013-11-28,44.2,26.8,15.4,30.1,20.2,12.7,94,78,37,30.46,30.23,3,0,4,0.01
2013-11-29,52.8,32.3,20.3,34.4,25.4,18.6,97,79,30,30.56,30.41,1,0,3,0.00
2013-11-30,52.9,35.0,24.4,33.9,25.9,22.6,97,74,32,30.53,30.28,6,0,6,0.00
2013-12-1,54.5,38.6,29.0,40.6,31.6,25.2,92,78,43,30.28,29.96,2,0,3,0.00
2013-12-2,48.2,43.4,37.2,47.0,41.9,34.1,99,94,87,29.95,29.76,2,0,2,0.11
2013-12-3,55.1,50.5,47.1,52.9,49.4,46.8,100,96,86,29.83,29.75,4,0,6,0.04
2013-12-4,65.6,56.8,49.9,59.8,54.3,49.9,100,92,71,29.95,29.83,7,1,13,0.04
2013-12-5,69.8,61.9,55.7,65.8,61.1,55.7,100,97,77,29.99,29.87,5,0,9,0.26
2013-12-6,71.3,64.2,50.1,65.2,60.8,48.8,100,90,71,29.98,29.81,12,1,16,0.91
2013-12-7,51.7,41.7,38.0,51.4,40.9,37.7,100,97,89,30.27,29.95,3,0,6,0.00
2013-12-8,50.8,46.2,41.3,50.8,44.8,40.8,100,95,85,30.22,30.04,6,0,13,1.17
2013-12-9,54.1,52.1,48.3,54.1,52.1,48.3,100,100,100,30.06,29.91,4,0,9,0.56
2013-12-10,49.2,39.0,25.8,49.2,36.3,23.3,100,90,68,30.32,29.86,6,1,12,0.47
2013-12-11,48.3,30.9,20.3,34.5,24.1,18.5,97,79,32,30.45,30.31,3,0,3,0.01
2013-12-12,41.8,29.7,22.9,26.2,20.0,8.4,92,70,30,30.45,30.32,4,0,9,0.00
2013-12-13,48.8,32.1,17.5,31.6,22.3,14.8,91,70,34,30.39,30.10,5,0,9,0.00
2013-12-14,51.6,47.5,41.9,51.6,43.1,24.6,100,86,48,30.12,29.72,7,1,14,0.57
2013-12-15,49.6,34.6,27.2,49.6,32.4,25.0,100,92,83,30.18,29.73,6,1,11,0.01
2013-12-16,48.8,32.8,22.9,36.7,28.1,21.7,98,85,46,30.25,30.11,2,0,6,0.01
2013-12-17,56.3,38.6,24.8,39.3,30.7,23.5,99,76,42,30.21,30.00,5,1,15,0.00
2013-12-18,47.3,33.7,25.4,24.2,19.3,7.8,84,59,20,30.30,30.12,4,0,9,0.00
2013-12-19,62.0,38.1,22.2,35.2,24.4,18.4,88,63,22,30.34,30.12,4,0,7,0.00
2013-12-20,62.7,48.7,34.7,51.8,38.4,27.1,90,70,31,30.19,30.01,5,1,11,0.00
2013-12-21,66.4,61.3,55.3,62.9,57.6,51.5,96,88,79,30.01,29.81,14,2,20,0.16
2013-12-22,66.9,58.2,52.8,63.0,57.1,52.8,100,96,79,30.01,29.76,14,1,19,3.24
2013-12-23,52.6,44.4,32.2,52.6,43.2,29.9,100,96,84,30.23,29.95,4,0,10,0.12
2013-12-24,32.7,28.4,19.7,30.1,22.1,16.2,92,78,58,30.40,30.22,5,1,12,0.01
2013-12-25,43.6,27.1,16.9,25.4,18.7,14.6,95,74,34,30.48,30.30,7,0,10,0.00
2013-12-26,47.4,30.8,21.3,33.3,24.1,19.6,96,78,41,30.39,30.25,2,0,9,0.00
2013-12-27,50.1,31.3,20.8,34.6,24.1,19.1,96,78,35,30.47,30.31,1,0,3,0.00
2013-12-28,41.2,33.2,23.8,41.2,31.8,22.1,100,95,85,30.38,29.91,2,0,3,0.94
2013-12-29,49.4,44.7,37.6,48.9,43.5,37.3,100,96,83,29.99,29.76,10,0,16,0.25
2013-12-30,42.5,39.1,34.7,40.8,37.6,32.9,100,95,85,30.15,29.96,3,0,5,0.00
2013-12-31,42.1,33.2,27.0,33.3,27.6,23.0,97,81,49,30.37,30.14,3,0,10,0.01
2014-1-1,46.7,34.0,25.4,34.4,27.2,23.7,95,78,43,30.35,30.07,5,0,8,0.00
2014-1-2,47.1,36.5,18.3,47.1,34.3,12.9,100,91,79,30.06,29.69,14,1,17,0.31